Time;durP1;ratioP1;P1;durP2;ratioP2;P2;SDS_P1;SDS_P2;PMS_P1;PMS_P2;Temp;Humidity;BMP_temperature;BMP_pressure;BME280_temperature;BME280_humidity;BME280_pressure;Samples;Min_cycle;Max_cycle;Signal;HPM_P1;HPM_P2
2022/08/18 00:02:02;;;;;;;19.70;6.35;;;;;;;24.58;66.74;98315.81;5118474;28;20416;-91
2022/08/18 00:04:28;;;;;;;17.45;6.13;;;;;;;24.66;66.91;98341.44;5112571;28;20039;-91
2022/08/18 00:06:54;;;;;;;16.02;6.70;;;;;;;24.47;66.48;98313.19;5115508;28;20063;-90
2022/08/18 00:09:21;;;;;;;16.65;6.13;;;;;;;24.54;66.73;98329.84;5113177;27;20036;-92
2022/08/18 00:11:47;;;;;;;18.67;5.97;;;;;;;24.50;66.94;98334.69;5106581;28;20155;-93
2022/08/18 00:14:16;;;;;;;15.45;6.75;;;;;;;24.44;67.62;98334.34;5102056;28;20532;-91
2022/08/18 00:16:45;;;;;;;28.65;6.65;;;;;;;24.23;67.45;98305.44;5103234;28;20406;-91
2022/08/18 00:19:11;;;;;;;19.20;6.18;;;;;;;24.37;67.10;98324.03;5099318;28;20035;-91
2022/08/18 00:21:37;;;;;;;16.27;5.70;;;;;;;24.27;67.30;98316.88;5103178;28;20039;-91
2022/08/18 00:24:03;;;;;;;20.73;6.75;;;;;;;24.26;67.67;98326.88;5097067;28;20131;-91
2022/08/18 00:26:30;;;;;;;13.75;5.43;;;;;;;24.19;67.57;98315.72;5099344;28;20068;-92
2022/08/18 00:28:56;;;;;;;16.33;6.72;;;;;;;24.12;68.82;98322.69;5099849;28;20040;-91
2022/08/18 00:31:22;;;;;;;18.83;6.22;;;;;;;24.14;68.58;98319.84;5100013;28;20050;-91
2022/08/18 00:33:48;;;;;;;17.98;6.68;;;;;;;24.18;68.54;98313.13;5099479;28;20062;-92
2022/08/18 00:36:14;;;;;;;20.50;6.07;;;;;;;24.15;69.00;98310.69;5100042;28;20064;-90
2022/08/18 00:38:40;;;;;;;18.17;6.25;;;;;;;24.14;69.28;98306.28;5102560;27;20061;-91
2022/08/18 00:41:06;;;;;;;18.02;6.25;;;;;;;24.02;70.02;98319.09;5100367;28;20034;-90
2022/08/18 00:43:40;;;;;;;18.60;6.72;;;;;;;23.99;70.04;98328.38;5098577;28;20033;-92
2022/08/18 00:46:08;;;;;;;20.08;6.65;;;;;;;23.88;70.81;98319.47;5103516;28;20052;-92
2022/08/18 00:48:34;;;;;;;18.73;6.33;;;;;;;23.87;71.34;98318.59;5098699;28;20093;-91
2022/08/18 00:51:06;;;;;;;18.65;6.78;;;;;;;23.87;72.01;98315.88;5096861;28;20036;-90
2022/08/18 00:53:36;;;;;;;20.02;7.03;;;;;;;23.84;72.57;98313.44;5096194;28;20036;-91
2022/08/18 00:56:07;;;;;;;16.95;6.95;;;;;;;23.77;73.68;98307.72;5096390;28;20109;-91
2022/08/18 00:58:39;;;;;;;18.92;6.90;;;;;;;23.83;74.07;98317.13;5096135;28;20501;-92
2022/08/18 01:01:08;;;;;;;16.13;7.15;;;;;;;23.84;74.46;98301.72;5099559;28;20112;-91
2022/08/18 01:03:38;;;;;;;21.00;7.72;;;;;;;23.70;75.21;98278.47;5100679;28;20034;-90
2022/08/18 01:06:08;;;;;;;19.48;7.65;;;;;;;23.80;75.48;98282.13;5096068;28;20389;-91
2022/08/18 01:08:34;;;;;;;19.17;7.65;;;;;;;23.89;75.57;98275.88;5097324;28;20051;-91
2022/08/18 01:11:02;;;;;;;22.45;7.43;;;;;;;23.82;76.26;98269.28;5097257;28;20071;-90
2022/08/18 01:13:31;;;;;;;21.75;7.80;;;;;;;23.67;77.14;98254.34;5096872;28;20040;-91
2022/08/18 01:21:49;;;;;;;15.95;6.72;;;;;;;23.60;77.72;98255.88;5095478;28;20067;-91
2022/08/18 01:21:50;;;;;;;18.15;7.80;;;;;;;23.63;78.30;98271.88;5148927;27;20364;-90
2022/08/18 01:24:20;;;;;;;30.35;8.93;;;;;;;23.65;78.12;98272.59;5130838;27;20039;-90
2022/08/18 01:26:49;;;;;;;20.48;7.55;;;;;;;23.72;77.99;98276.50;5131470;27;20067;-91
2022/08/18 01:29:16;;;;;;;14.60;8.07;;;;;;;23.76;78.04;98278.81;5132892;27;20057;-91
2022/08/18 01:31:48;;;;;;;17.15;7.50;;;;;;;23.72;78.12;98281.91;5130541;28;20489;-91
2022/08/18 01:34:15;;;;;;;18.33;7.75;;;;;;;23.70;78.42;98292.94;5131675;27;20125;-93
2022/08/18 01:36:42;;;;;;;18.17;7.30;;;;;;;23.69;78.79;98293.06;5136527;27;20095;-90
2022/08/18 01:39:11;;;;;;;16.58;7.90;;;;;;;23.69;78.84;98291.19;5132636;27;20036;-91
2022/08/18 01:41:40;;;;;;;16.17;7.90;;;;;;;23.55;79.34;98284.28;5136579;27;20415;-91
2022/08/18 01:44:10;;;;;;;;;;;;;;;23.64;79.86;98304.31;5134628;27;20041;-91
2022/08/18 01:46:37;;;;;;;19.88;8.02;;;;;;;23.54;79.65;98325.97;5133835;27;19915;-90
2022/08/18 01:49:04;;;;;;;18.75;7.68;;;;;;;23.56;80.21;98350.28;5132006;27;20081;-92
2022/08/18 01:51:33;;;;;;;16.23;7.28;;;;;;;23.64;79.78;98377.63;5134809;27;20089;-92
2022/08/18 01:54:00;;;;;;;18.02;7.60;;;;;;;23.66;79.50;98347.59;5131761;27;20043;-91
2022/08/18 01:56:26;;;;;;;16.65;7.90;;;;;;;23.51;80.14;98363.41;5132625;27;20040;-92
2022/08/18 01:58:54;;;;;;;20.42;7.65;;;;;;;23.77;77.93;98344.88;5130802;27;20414;-92
2022/08/18 02:01:21;;;;;;;14.93;7.30;;;;;;;23.69;76.69;98378.06;5138098;27;20032;-94
2022/08/18 02:03:51;;;;;;;17.08;7.03;;;;;;;23.70;75.96;98349.06;5138083;27;20270;-91
2022/08/18 02:06:18;;;;;;;21.83;7.43;;;;;;;23.82;75.36;98358.88;5134959;27;20038;-94
2022/08/18 02:08:44;;;;;;;16.65;7.72;;;;;;;23.91;74.15;98378.94;5133319;27;20580;-93
2022/08/18 02:11:10;;;;;;;25.65;7.20;;;;;;;24.02;74.17;98386.97;5132090;27;20119;-92
2022/08/18 02:13:36;;;;;;;20.10;7.53;;;;;;;24.05;74.37;98365.00;5131114;27;20028;-91
2022/08/18 02:16:04;;;;;;;22.45;7.82;;;;;;;24.05;74.46;98378.59;5135928;27;20035;-91
2022/08/18 02:18:34;;;;;;;16.73;6.97;;;;;;;23.99;74.71;98331.09;5134465;27;20054;-91
2022/08/18 02:21:07;;;;;;;17.70;6.85;;;;;;;24.04;74.38;98321.66;5134922;27;20128;-91
2022/08/18 02:23:33;;;;;;;17.17;6.88;;;;;;;23.84;75.32;98310.72;5135045;27;20051;-92
2022/08/18 02:26:03;;;;;;;19.15;7.97;;;;;;;23.72;76.33;98309.06;5137214;27;20702;-94
2022/08/18 02:28:29;;;;;;;20.67;7.57;;;;;;;23.72;76.52;98300.91;5138800;27;20980;-92
2022/08/18 02:30:55;;;;;;;18.85;7.03;;;;;;;23.74;76.14;98288.06;5133397;27;20059;-92
2022/08/18 02:33:22;;;;;;;18.20;7.25;;;;;;;23.76;76.15;98286.13;5117892;27;20035;-93
2022/08/18 02:35:52;;;;;;;26.58;7.95;;;;;;;23.57;76.75;98259.69;5119968;27;20035;-90
2022/08/18 02:38:18;;;;;;;19.77;7.75;;;;;;;23.53;77.58;98274.53;5122664;27;20035;-92
2022/08/18 02:40:45;;;;;;;19.60;7.80;;;;;;;23.48;77.95;98272.22;5120900;27;20104;-93
2022/08/18 02:43:11;;;;;;;20.23;7.82;;;;;;;23.36;77.82;98249.75;5120626;27;20053;-92
2022/08/18 02:45:38;;;;;;;21.52;8.70;;;;;;;23.32;80.19;98256.44;5119720;27;20032;-92
2022/08/18 02:48:06;;;;;;;19.38;8.25;;;;;;;23.27;81.25;98253.28;5117588;27;20036;-92
2022/08/18 02:50:33;;;;;;;23.30;8.52;;;;;;;23.20;81.75;98245.81;5118923;27;20032;-91
2022/08/18 02:53:01;;;;;;;19.80;8.13;;;;;;;23.16;82.00;98247.91;5116447;27;20031;-91
2022/08/18 02:55:28;;;;;;;17.47;7.87;;;;;;;23.09;82.50;98236.75;5119352;27;20088;-91
2022/08/18 02:57:54;;;;;;;16.45;7.82;;;;;;;23.02;82.55;98192.19;5119780;27;20039;-91
2022/08/18 03:00:20;;;;;;;17.75;8.68;;;;;;;23.11;82.86;98210.34;5121970;27;20563;-91
2022/08/18 03:02:50;;;;;;;23.83;9.15;;;;;;;23.01;83.43;98187.78;5116713;27;20460;-91
2022/08/18 03:05:17;;;;;;;22.40;9.23;;;;;;;22.97;83.55;98170.00;5119101;27;20055;-91
2022/08/18 03:07:45;;;;;;;23.25;9.02;;;;;;;23.08;82.84;98161.81;5117474;27;20545;-91
2022/08/18 03:10:13;;;;;;;22.48;8.07;;;;;;;23.19;82.69;98146.47;5119148;27;20566;-91
2022/08/18 03:12:41;;;;;;;26.05;9.40;;;;;;;23.02;83.54;98112.69;5122197;27;21524;-92
2022/08/18 03:15:07;;;;;;;20.60;8.77;;;;;;;22.98;83.85;98131.03;5119950;27;20122;-92
2022/08/18 03:17:34;;;;;;;20.45;9.05;;;;;;;22.98;84.64;98166.28;5118872;27;20510;-91
2022/08/18 03:20:00;;;;;;;21.80;9.27;;;;;;;22.95;84.52;98155.72;5119231;27;20063;-91
2022/08/18 03:22:26;;;;;;;23.67;9.57;;;;;;;22.97;83.47;98122.06;5118920;27;20382;-91
2022/08/18 03:24:53;;;;;;;19.70;9.57;;;;;;;23.12;83.05;98128.00;5123144;27;20028;-92
2022/08/18 03:27:19;;;;;;;19.10;8.73;;;;;;;23.21;82.58;98129.06;5123596;27;20104;-91
2022/08/18 03:29:45;;;;;;;20.95;9.75;;;;;;;23.38;79.92;98141.97;5118001;27;20044;-90
2022/08/18 03:32:11;;;;;;;21.85;9.80;;;;;;;23.42;80.00;98157.94;5122389;27;20096;-92
2022/08/18 03:34:37;;;;;;;25.88;8.98;;;;;;;23.54;79.95;98184.84;5117872;27;20046;-90
2022/08/18 03:37:04;;;;;;;17.30;8.52;;;;;;;23.47;79.96;98183.69;5119699;27;20035;-91
2022/08/18 03:39:30;;;;;;;24.98;8.90;;;;;;;23.45;80.18;98166.69;5118664;27;20043;-92
2022/08/18 03:41:58;;;;;;;24.15;8.93;;;;;;;23.44;80.61;98154.09;5117660;27;20035;-93
2022/08/18 03:44:24;;;;;;;20.88;8.90;;;;;;;23.34;81.10;98191.22;5124743;27;20036;-92
2022/08/18 03:46:50;;;;;;;20.30;8.93;;;;;;;23.43;81.15;98198.53;5121879;27;20039;-93
2022/08/18 03:49:17;;;;;;;27.55;9.95;;;;;;;23.35;81.10;98177.50;5125375;27;20518;-92
2022/08/18 03:51:47;;;;;;;24.75;9.27;;;;;;;23.44;80.92;98174.94;5115846;27;20043;-92
2022/08/18 03:54:15;;;;;;;19.52;8.90;;;;;;;23.47;80.86;98145.69;5120637;27;20067;-93
2022/08/18 03:56:43;;;;;;;23.48;9.32;;;;;;;23.52;80.30;98148.00;5119896;27;20039;-91
2022/08/18 03:59:12;;;;;;;19.40;8.57;;;;;;;23.46;80.54;98116.84;5122002;27;20074;-92
2022/08/18 04:01:40;;;;;;;22.13;8.45;;;;;;;23.50;80.67;98118.28;5119006;27;20040;-90
2022/08/18 04:04:09;;;;;;;21.98;9.18;;;;;;;23.60;80.24;98112.03;5120115;27;20035;-91
2022/08/18 04:06:38;;;;;;;24.55;8.45;;;;;;;23.65;79.96;98107.03;5125122;27;20106;-92
2022/08/18 04:09:07;;;;;;;19.48;7.90;;;;;;;23.80;79.07;98102.94;5117082;27;20124;-90
2022/08/18 04:11:35;;;;;;;19.73;8.57;;;;;;;23.82;78.32;98084.66;5118356;27;20059;-91
2022/08/18 04:14:01;;;;;;;21.02;8.90;;;;;;;23.97;78.13;98104.09;5118243;27;20055;-92
2022/08/18 04:16:31;;;;;;;13.77;7.97;;;;;;;24.00;77.95;98095.66;5120420;27;20448;-91
2022/08/18 04:19:01;;;;;;;18.40;8.85;;;;;;;23.99;77.74;98085.81;5117943;27;20063;-92
2022/08/18 04:21:30;;;;;;;18.80;8.15;;;;;;;23.95;77.41;98070.78;5122216;27;20051;-92
2022/08/18 04:23:58;;;;;;;18.88;7.95;;;;;;;23.96;77.70;98086.06;5121310;27;20061;-92
2022/08/18 04:26:24;;;;;;;;;;;;;;;23.96;77.87;98092.38;5119823;27;20058;-91
2022/08/18 04:28:50;;;;;;;21.63;8.70;;;;;;;23.91;77.57;98080.22;5119741;27;19923;-93
2022/08/18 04:31:22;;;;;;;22.83;8.75;;;;;;;23.96;77.59;98105.97;5118056;27;20496;-91
2022/08/18 04:33:49;;;;;;;25.27;8.68;;;;;;;23.90;77.74;98097.50;5120690;27;20097;-93
2022/08/18 04:36:16;;;;;;;25.50;9.30;;;;;;;23.56;79.25;98077.00;5115242;27;20054;-93
2022/08/18 04:38:42;;;;;;;24.35;8.57;;;;;;;23.61;79.62;98081.16;5122143;27;20081;-90
2022/08/18 04:41:10;;;;;;;23.45;8.98;;;;;;;23.56;79.70;98068.03;5117305;27;20059;-91
2022/08/18 04:43:36;;;;;;;22.95;9.32;;;;;;;23.56;79.89;98060.72;5117993;27;20039;-91
2022/08/18 04:46:02;;;;;;;23.45;9.48;;;;;;;23.45;79.85;98058.16;5115625;27;20028;-90
2022/08/18 04:48:32;;;;;;;18.95;8.90;;;;;;;23.38;80.50;98057.00;5120323;27;20126;-91
2022/08/18 04:51:03;;;;;;;20.85;8.80;;;;;;;23.42;79.31;98058.44;5117917;27;20047;-92
2022/08/18 04:56:32;;;;;;;23.83;9.18;;;;;;;23.44;79.70;98050.13;5176777;27;20393;-93
2022/08/18 04:59:00;;;;;;;25.10;9.90;;;;;;;23.47;79.82;98039.88;5148733;27;20091;-93
2022/08/18 05:01:29;;;;;;;18.75;8.10;;;;;;;23.45;79.55;98032.88;5143881;27;20043;-91
2022/08/18 05:03:57;;;;;;;23.77;8.60;;;;;;;23.48;78.34;98025.28;5142747;27;20090;-94
2022/08/18 05:06:25;;;;;;;24.77;9.30;;;;;;;23.50;78.60;98015.16;5145290;27;20397;-93
2022/08/18 05:08:52;;;;;;;19.23;8.50;;;;;;;23.61;77.74;98018.75;5142641;27;20050;-91
2022/08/18 05:11:18;;;;;;;19.13;8.43;;;;;;;23.62;77.18;98001.47;5145689;27;20031;-91
2022/08/18 05:13:46;;;;;;;18.77;8.10;;;;;;;23.73;76.54;98001.31;5140090;27;20089;-91
2022/08/18 05:16:11;;;;;;;24.00;8.15;;;;;;;23.86;76.11;98011.94;5145456;27;20035;-91
2022/08/18 05:18:39;;;;;;;20.00;8.20;;;;;;;23.89;76.08;98015.19;5145669;27;20544;-91
2022/08/18 05:21:05;;;;;;;22.77;8.02;;;;;;;23.99;76.32;98020.63;5142902;27;20089;-91
2022/08/18 05:23:31;;;;;;;22.80;8.57;;;;;;;23.94;76.17;98012.03;5143544;27;20063;-91
2022/08/18 05:25:58;;;;;;;27.30;8.48;;;;;;;24.03;74.88;98002.16;5142605;27;20131;-90
2022/08/18 05:28:25;;;;;;;22.60;7.75;;;;;;;24.09;75.08;97982.56;5142234;27;20118;-90
2022/08/18 05:30:53;;;;;;;21.27;7.47;;;;;;;24.14;73.17;97994.72;5143061;27;20030;-91
2022/08/18 05:33:19;;;;;;;22.92;8.18;;;;;;;24.46;73.38;97990.75;5143708;27;20035;-92
2022/08/18 05:35:48;;;;;;;19.58;7.82;;;;;;;24.57;71.25;97981.59;5144746;27;20042;-88
2022/08/18 05:38:34;;;;;;;20.00;7.57;;;;;;;24.97;69.99;98000.31;5139123;27;20054;-91
2022/08/18 05:41:09;;;;;;;21.58;7.68;;;;;;;25.07;68.94;97973.06;5142217;27;20055;-91
2022/08/18 05:43:36;;;;;;;22.13;7.60;;;;;;;25.21;68.32;97979.88;5145102;27;20039;-93
2022/08/18 05:46:06;;;;;;;19.38;8.52;;;;;;;25.29;68.01;97969.09;5145021;27;20118;-92
2022/08/18 05:48:33;;;;;;;22.35;7.82;;;;;;;25.34;67.90;97995.81;5148721;27;20093;-92
2022/08/18 05:51:08;;;;;;;22.63;8.27;;;;;;;25.30;67.68;98005.31;5149494;27;20094;-94
2022/08/18 05:59:40;;;;;;;19.77;7.85;;;;;;;25.49;68.48;98032.41;5154713;27;20389;-92
2022/08/18 06:02:12;;;;;;;21.10;8.23;;;;;;;25.56;69.00;98028.03;5147619;27;20050;-90
2022/08/18 06:04:42;;;;;;;24.73;8.18;;;;;;;25.57;69.52;98020.75;5152125;27;20060;-92
2022/08/18 06:07:12;;;;;;;21.60;8.18;;;;;;;25.57;69.76;98024.31;5152660;27;20484;-92
2022/08/18 06:09:44;;;;;;;24.92;8.18;;;;;;;25.50;70.18;98006.88;5154744;27;20057;-93
2022/08/18 06:12:25;;;;;;;17.30;7.78;;;;;;;25.55;69.43;97999.13;5151491;27;21017;-92
2022/08/18 06:15:04;;;;;;;16.48;6.93;;;;;;;25.55;66.60;97999.13;5152761;27;20041;-93
2022/08/18 06:18:05;;;;;;;20.45;8.15;;;;;;;25.38;67.61;98014.41;5148393;27;20039;-92
2022/08/18 06:20:44;;;;;;;28.40;7.95;;;;;;;25.38;64.72;98016.28;5148099;27;20045;-91
2022/08/18 06:23:25;;;;;;;22.40;7.65;;;;;;;25.51;65.58;98005.03;5152282;27;20039;-90
2022/08/18 06:26:02;;;;;;;24.73;7.72;;;;;;;25.49;65.49;97996.16;5152989;27;20039;-89
2022/08/18 06:28:42;;;;;;;23.20;7.85;;;;;;;25.50;64.33;98006.03;5151570;27;20062;-91
2022/08/18 06:31:16;;;;;;;22.08;6.95;;;;;;;25.51;64.21;98008.59;5150301;27;20396;-92
2022/08/18 06:33:53;;;;;;;20.98;7.20;;;;;;;25.65;63.89;98003.63;5151012;27;20496;-92
2022/08/18 06:36:38;;;;;;;20.17;7.47;;;;;;;25.61;64.79;98003.06;5151315;27;20095;-92
2022/08/18 06:39:11;;;;;;;22.92;7.75;;;;;;;25.62;64.80;98004.78;5150408;27;20035;-91
2022/08/18 06:41:41;;;;;;;20.90;7.28;;;;;;;25.60;64.21;97995.91;5151836;27;20031;-92
2022/08/18 06:44:09;;;;;;;18.58;7.65;;;;;;;25.73;63.41;97990.09;5152054;27;20039;-93
2022/08/18 06:46:44;;;;;;;24.38;7.68;;;;;;;25.84;62.82;97978.94;5150285;27;20046;-93
2022/08/18 06:49:13;;;;;;;25.88;7.18;;;;;;;25.94;61.47;97954.38;5143210;27;20066;-93
2022/08/18 06:51:40;;;;;;;21.55;7.25;;;;;;;26.23;59.73;97964.97;5151761;27;20035;-94
2022/08/18 06:54:24;;;;;;;18.48;7.07;;;;;;;26.34;58.48;97939.31;5151818;27;20092;-93
2022/08/18 06:56:52;;;;;;;25.55;6.90;;;;;;;26.44;56.50;97962.69;5151455;27;20042;-92
2022/08/18 06:59:22;;;;;;;21.30;6.72;;;;;;;26.69;56.71;97971.03;5149236;27;20571;-92
2022/08/18 07:01:55;;;;;;;25.58;7.28;;;;;;;26.75;57.27;97948.56;5151601;27;20035;-92
2022/08/18 07:04:35;;;;;;;22.40;6.80;;;;;;;26.90;56.66;97956.97;5151548;27;20072;-94
2022/08/18 07:07:13;;;;;;;20.30;6.40;;;;;;;26.93;56.66;97958.50;5152168;27;20039;-94
2022/08/18 07:09:39;;;;;;;17.10;6.68;;;;;;;27.11;58.43;97959.28;5145756;27;20039;-93
2022/08/18 07:12:07;;;;;;;17.20;7.70;;;;;;;27.13;60.85;97957.22;5138923;27;20051;-92
2022/08/18 07:14:43;;;;;;;23.37;7.67;;;;;;;26.79;61.33;97941.75;5137018;27;20040;-93
2022/08/18 07:17:12;;;;;;;24.30;7.10;;;;;;;26.56;60.30;97946.09;5139048;27;20171;-94
2022/08/18 07:19:39;;;;;;;21.25;7.72;;;;;;;26.70;58.00;97953.66;5138995;27;20134;-93
2022/08/18 07:22:07;;;;;;;25.27;6.75;;;;;;;27.10;55.89;97946.63;5138599;27;20103;-95
2022/08/18 07:24:38;;;;;;;20.67;7.10;;;;;;;27.44;53.41;97943.00;5138450;27;20027;-93
2022/08/18 07:27:07;;;;;;;17.05;6.15;;;;;;;27.74;52.76;97948.81;5137165;27;20119;-95
2022/08/18 07:29:36;;;;;;;16.17;6.85;;;;;;;28.08;52.71;97936.88;5137559;27;20151;-94
2022/08/18 07:32:08;;;;;;;25.75;6.47;;;;;;;28.18;51.74;97929.34;5137002;27;20043;-91
2022/08/18 07:34:39;;;;;;;25.58;6.57;;;;;;;28.65;51.88;97940.34;5134060;27;20046;-93
2022/08/18 07:37:13;;;;;;;21.52;6.70;;;;;;;28.61;50.74;97949.09;5136779;27;20036;-93
2022/08/18 07:39:45;;;;;;;24.65;6.72;;;;;;;28.63;49.44;97925.13;5137149;27;20515;-92
2022/08/18 07:42:17;;;;;;;18.80;5.70;;;;;;;28.95;48.93;97942.41;5137659;27;20035;-91
2022/08/18 07:44:51;;;;;;;18.33;5.85;;;;;;;29.26;46.88;97945.22;5137192;27;20122;-93
2022/08/18 07:47:23;;;;;;;21.27;6.40;;;;;;;29.43;46.45;97941.34;5136767;27;20059;-94
2022/08/18 07:49:57;;;;;;;22.58;6.07;;;;;;;29.81;46.15;97957.84;5137012;27;20043;-93
2022/08/18 07:52:28;;;;;;;19.83;5.93;;;;;;;30.09;43.60;97949.88;5136720;27;20049;-93
2022/08/18 07:55:01;;;;;;;33.83;6.93;;;;;;;30.36;45.10;97944.00;5134615;27;20511;-92
2022/08/18 07:57:46;;;;;;;16.52;6.55;;;;;;;30.66;46.63;97942.97;5134164;27;20109;-91
2022/08/18 08:00:19;;;;;;;23.02;6.70;;;;;;;30.79;45.65;97939.53;5136335;27;20035;-93
2022/08/18 08:02:59;;;;;;;26.05;6.93;;;;;;;31.06;45.41;97942.69;5136361;27;20039;-92
2022/08/18 08:05:39;;;;;;;22.42;6.72;;;;;;;31.15;45.77;97949.75;5135354;27;20093;-92
2022/08/18 08:08:18;;;;;;;19.92;6.75;;;;;;;31.14;45.03;97942.53;5136129;27;20047;-94
2022/08/18 08:10:52;;;;;;;16.65;6.38;;;;;;;30.98;45.42;97954.63;5136430;27;20092;-93
2022/08/18 08:13:27;;;;;;;20.08;7.53;;;;;;;30.76;46.55;97964.63;5135401;27;20038;-93
2022/08/18 08:16:01;;;;;;;23.75;7.45;;;;;;;30.64;47.33;97971.63;5134768;27;20051;-92
2022/08/18 08:18:35;;;;;;;27.92;7.25;;;;;;;30.60;46.92;97976.66;5135038;27;20047;-94
2022/08/18 08:21:08;;;;;;;22.48;7.45;;;;;;;30.41;47.76;97967.09;5135344;27;20051;-92
2022/08/18 08:23:43;;;;;;;19.90;6.82;;;;;;;30.35;47.39;97983.44;5136420;27;20043;-94
2022/08/18 08:26:35;;;;;;;19.92;7.05;;;;;;;30.28;47.63;98006.13;5136415;27;20062;-94
2022/08/18 08:29:15;;;;;;;28.52;7.70;;;;;;;30.26;48.32;97996.38;5129002;27;20051;-92
2022/08/18 08:31:47;;;;;;;24.38;7.05;;;;;;;29.97;48.16;97986.16;5133743;27;20042;-93
2022/08/18 08:34:20;;;;;;;24.33;7.53;;;;;;;29.89;47.70;97973.38;5135132;27;20035;-92
2022/08/18 08:36:49;;;;;;;22.90;7.20;;;;;;;29.89;46.61;97985.19;5135583;27;20118;-92
2022/08/18 08:39:22;;;;;;;23.88;7.05;;;;;;;29.82;44.26;97994.31;5135219;27;20035;-92
2022/08/18 08:41:53;;;;;;;19.80;6.28;;;;;;;29.75;44.86;98031.72;5135250;27;20035;-94
2022/08/18 08:44:24;;;;;;;24.23;6.63;;;;;;;29.78;43.52;98051.41;5135849;27;20047;-92
2022/08/18 08:46:55;;;;;;;25.55;6.88;;;;;;;29.80;44.95;98068.53;5136590;27;20092;-93
2022/08/18 08:49:33;;;;;;;20.75;6.05;;;;;;;29.85;41.14;98073.44;5135271;27;20047;-92
2022/08/18 08:52:04;;;;;;;;;;;;;;;30.12;42.44;98098.63;5134495;27;20039;-94
2022/08/18 08:54:39;;;;;;;19.23;5.93;;;;;;;30.07;40.52;98079.97;5131536;27;19927;-94
2022/08/18 08:57:07;;;;;;;28.70;6.75;;;;;;;30.21;41.74;98084.69;5135514;27;20035;-96
2022/08/18 08:59:35;;;;;;;27.73;7.55;;;;;;;30.02;39.75;98088.75;5141639;27;20055;-93
2022/08/18 09:02:22;;;;;;;22.80;6.40;;;;;;;29.88;40.68;98098.63;5136262;27;20043;-94
2022/08/18 09:04:54;;;;;;;26.67;6.82;;;;;;;29.69;40.96;98131.97;5136985;27;20046;-94
2022/08/18 09:07:38;;;;;;;21.75;6.05;;;;;;;29.64;41.29;98139.81;5134265;27;20054;-95
2022/08/18 09:10:29;;;;;;;22.40;6.65;;;;;;;29.48;41.25;98152.56;5136439;27;20043;-94
2022/08/18 09:13:15;;;;;;;24.58;6.57;;;;;;;29.47;38.86;98164.56;5134883;27;20042;-94
2022/08/18 09:15:59;;;;;;;34.58;6.88;;;;;;;29.45;38.37;98169.34;5137625;27;20118;-95
2022/08/18 09:18:47;;;;;;;26.85;6.13;;;;;;;29.57;38.84;98178.03;5132537;27;20063;-93
2022/08/18 09:21:35;;;;;;;28.83;6.68;;;;;;;29.65;38.96;98197.19;5129469;27;20111;-92
2022/08/18 09:24:13;;;;;;;25.90;6.03;;;;;;;29.57;38.68;98189.00;5131700;27;20067;-93
2022/08/18 09:26:43;;;;;;;24.27;5.85;;;;;;;29.58;39.40;98212.63;5133788;27;20395;-93
2022/08/18 09:29:17;;;;;;;29.08;6.85;;;;;;;29.58;38.42;98236.41;5135341;27;20039;-95
2022/08/18 09:31:45;;;;;;;22.38;6.22;;;;;;;29.55;38.68;98264.19;5136018;27;20096;-93
2022/08/18 09:34:33;;;;;;;27.90;6.40;;;;;;;29.55;38.54;98308.84;5130068;27;20042;-92
2022/08/18 09:37:18;;;;;;;24.17;6.85;;;;;;;29.45;38.71;98299.97;5132616;27;20039;-93
2022/08/18 09:43:12;;;;;;;20.67;5.90;;;;;;;29.39;38.83;98241.28;5126188;27;20373;-93
2022/08/18 09:45:56;;;;;;;29.77;5.93;;;;;;;29.31;38.68;98199.34;5126389;28;20093;-92
2022/08/18 09:48:29;;;;;;;23.35;6.40;;;;;;;29.24;39.58;98183.63;5122810;28;20069;-93
2022/08/18 09:51:14;;;;;;;23.23;5.78;;;;;;;29.19;38.27;98190.63;5124837;27;20039;-93
2022/08/18 09:54:12;;;;;;;24.95;6.38;;;;;;;29.26;38.28;98213.56;5114119;27;20039;-92
2022/08/18 09:57:04;;;;;;;25.80;6.35;;;;;;;29.33;37.73;98239.22;5065582;28;20059;-91
2022/08/18 09:59:55;;;;;;;29.17;6.47;;;;;;;29.41;37.65;98276.72;5070491;28;20146;-93
2022/08/18 10:03:09;;;;;;;24.73;5.90;;;;;;;29.33;38.20;98295.88;5069517;28;20055;-93
2022/08/18 10:05:35;;;;;;;23.17;5.82;;;;;;;29.21;39.09;98284.41;5001742;28;20054;-92
2022/08/18 10:08:37;;;;;;;24.23;6.68;;;;;;;29.31;39.28;98287.00;5010059;28;20042;-93
2022/08/18 10:11:35;;;;;;;29.27;6.32;;;;;;;29.40;40.28;98269.50;4971259;28;20042;-94
2022/08/18 10:14:35;;;;;;;25.15;5.70;;;;;;;29.63;40.53;98275.13;5009062;28;20038;-94
2022/08/18 10:17:16;;;;;;;32.75;6.65;;;;;;;29.52;40.71;98257.16;4914406;29;20064;-93
2022/08/18 10:19:51;;;;;;;27.15;6.05;;;;;;;29.56;40.79;98247.56;4914177;29;20562;-93
2022/08/18 10:22:37;;;;;;;24.77;6.15;;;;;;;29.78;41.23;98232.28;4915351;29;20068;-93
2022/08/18 10:25:05;;;;;;;30.40;6.10;;;;;;;30.09;39.72;98224.06;4911613;29;20040;-92
2022/08/18 10:27:45;;;;;;;22.90;6.03;;;;;;;30.28;39.93;98222.81;4912522;29;20398;-92
2022/08/18 10:30:44;;;;;;;23.40;6.25;;;;;;;30.59;40.11;98229.31;4913093;29;20056;-93
2022/08/18 10:33:50;;;;;;;27.98;6.00;;;;;;;29.99;41.96;98228.91;4976940;28;20043;-95
2022/08/18 10:36:34;;;;;;;26.80;6.57;;;;;;;30.66;41.68;98233.00;4984798;28;20038;-92
2022/08/18 10:39:03;;;;;;;19.15;6.35;;;;;;;30.52;43.30;98247.53;4999508;28;20048;-92
2022/08/18 10:41:32;;;;;;;22.40;6.38;;;;;;;29.77;45.38;98282.63;5047239;28;20148;-93
2022/08/18 10:44:01;;;;;;;20.30;6.10;;;;;;;29.19;45.48;98261.81;5047657;28;20605;-91
2022/08/18 10:46:31;;;;;;;24.27;6.65;;;;;;;28.93;46.15;98253.75;5047582;28;20048;-91
2022/08/18 10:49:06;;;;;;;26.52;5.90;;;;;;;29.12;45.82;98269.88;5047647;28;20164;-91
2022/08/18 10:51:52;;;;;;;18.83;6.00;;;;;;;29.08;46.34;98280.28;5046868;28;20132;-91
2022/08/18 10:54:27;;;;;;;14.40;5.22;;;;;;;29.14;46.24;98289.72;5098893;28;20048;-92
2022/08/18 10:56:59;;;;;;;17.90;5.50;;;;;;;28.73;46.74;98275.97;5107471;28;20523;-93
2022/08/18 10:59:32;;;;;;;14.73;5.45;;;;;;;29.12;46.55;98282.72;5110718;28;20047;-93
2022/08/18 11:02:11;;;;;;;15.77;4.80;;;;;;;29.03;46.77;98277.19;5099329;28;20043;-93
2022/08/18 11:04:43;;;;;;;14.32;4.60;;;;;;;28.64;48.62;98288.78;5102453;28;20104;-94
2022/08/18 11:07:11;;;;;;;11.50;4.38;;;;;;;28.67;48.42;98293.94;5103862;28;20040;-92
2022/08/18 11:09:38;;;;;;;18.48;4.47;;;;;;;28.75;48.43;98304.03;5104915;28;20044;-92
2022/08/18 11:12:05;;;;;;;25.20;5.37;;;;;;;28.47;49.40;98295.22;5111687;28;20036;-93
2022/08/18 11:14:50;;;;;;;18.60;5.20;;;;;;;28.30;49.36;98294.34;5109929;28;20111;-90
2022/08/18 11:17:25;;;;;;;13.48;4.50;;;;;;;28.45;49.26;98281.72;5104748;28;20534;-91
2022/08/18 11:19:54;;;;;;;10.38;4.63;;;;;;;28.35;49.66;98250.09;5106841;27;20051;-90
2022/08/18 11:22:22;;;;;;;12.45;4.22;;;;;;;28.31;50.36;98271.44;5114780;28;20037;-93
2022/08/18 11:24:48;;;;;;;14.75;3.55;;;;;;;27.67;52.38;98287.34;5111066;28;20534;-92
2022/08/18 11:27:18;;;;;;;12.45;4.28;;;;;;;27.43;52.39;98309.88;5108905;28;20035;-92
2022/08/18 11:29:45;;;;;;;13.40;4.03;;;;;;;27.64;52.77;98315.84;5112326;28;20055;-92
2022/08/18 11:32:26;;;;;;;11.20;4.03;;;;;;;27.66;52.75;98296.56;5107023;28;20431;-92
2022/08/18 11:35:03;;;;;;;13.00;4.00;;;;;;;27.12;53.94;98274.81;5109820;28;20028;-90
2022/08/18 11:37:35;;;;;;;17.50;3.85;;;;;;;26.71;54.57;98239.00;5106147;28;20043;-92
2022/08/18 11:40:04;;;;;;;14.82;4.28;;;;;;;26.12;56.71;98256.78;5105545;28;20043;-91
2022/08/18 11:42:37;;;;;;;14.40;4.28;;;;;;;26.27;56.45;98266.16;5103415;28;20054;-91
2022/08/18 11:45:12;;;;;;;7.35;3.63;;;;;;;25.95;57.16;98272.09;5111519;28;20044;-93
2022/08/18 11:47:58;;;;;;;12.27;4.03;;;;;;;25.59;57.78;98293.69;5108811;28;20047;-93
2022/08/18 11:50:30;;;;;;;12.07;3.95;;;;;;;25.30;59.21;98300.06;5105918;28;20044;-94
2022/08/18 11:53:12;;;;;;;14.02;4.03;;;;;;;25.39;59.06;98285.59;5115065;28;20507;-91
2022/08/18 11:55:39;;;;;;;13.05;3.78;;;;;;;24.80;60.97;98265.72;5108971;28;20028;-93
2022/08/18 11:58:05;;;;;;;10.75;3.60;;;;;;;24.96;60.22;98250.69;5106661;28;20080;-94
2022/08/18 12:00:53;;;;;;;12.40;3.50;;;;;;;24.98;59.81;98232.34;5103812;28;20032;-90
2022/08/18 12:03:26;;;;;;;12.68;3.90;;;;;;;25.01;60.31;98234.81;5107577;28;20040;-92
2022/08/18 12:05:56;;;;;;;17.10;3.45;;;;;;;25.46;59.00;98209.66;5108482;28;20044;-93